Machichaco, Vizcaya

latitud = 43° 33' 39''N | longitud = 005° 41' 55''W
93 metros sobre el nivel del mar | datos mensuales

Fecha, hora, temperatura, viento dirección y velocidad, humedad y presión.

  • 16-08-2018 02:00:00 | 19.70°C | Sudoeste |4.00 km/h | 91.00% | 0.00 hPa
  • 16-08-2018 01:00:00 | 20.00°C | Sudeste |5.00 km/h | 90.00% | 0.00 hPa
  • 16-08-2018 00:00:00 | 20.30°C | Sudeste |7.00 km/h | 89.00% | 0.00 hPa
  • 15-08-2018 23:00:00 | 20.50°C | Sudeste |11.00 km/h | 89.00% | 0.00 hPa
  • 15-08-2018 22:00:00 | 20.80°C | Este |20.00 km/h | 87.00% | 0.00 hPa
  • 15-08-2018 21:00:00 | 21.00°C | Este |19.00 km/h | 86.00% | 0.00 hPa
  • 15-08-2018 20:00:00 | 21.80°C | Este |20.00 km/h | 83.00% | 0.00 hPa
  • 15-08-2018 19:00:00 | 22.30°C | Este |19.00 km/h | 78.00% | 0.00 hPa
  • 15-08-2018 18:00:00 | 22.10°C | Este |21.00 km/h | 79.00% | 0.00 hPa
  • 15-08-2018 17:00:00 | 22.50°C | Este |21.00 km/h | 77.00% | 0.00 hPa
  • 15-08-2018 16:00:00 | 21.90°C | Este |26.00 km/h | 79.00% | 0.00 hPa
  • 15-08-2018 15:00:00 | 22.20°C | Este |23.00 km/h | 76.00% | 0.00 hPa
  • 15-08-2018 14:00:00 | 22.40°C | Este |23.00 km/h | 76.00% | 0.00 hPa
  • 15-08-2018 13:00:00 | 22.30°C | Este |24.00 km/h | 74.00% | 0.00 hPa
  • 15-08-2018 12:00:00 | 22.10°C | Este |20.00 km/h | 75.00% | 0.00 hPa
  • 15-08-2018 11:00:00 | 22.40°C | Este |12.00 km/h | 75.00% | 0.00 hPa
  • 15-08-2018 10:00:00 | 21.50°C | Este |10.00 km/h | 78.00% | 0.00 hPa
  • 15-08-2018 09:00:00 | 21.50°C | Este |15.00 km/h | 75.00% | 0.00 hPa
  • 15-08-2018 08:00:00 | 19.80°C | Este |11.00 km/h | 84.00% | 0.00 hPa
  • 15-08-2018 07:00:00 | 19.30°C | Sudeste |7.00 km/h | 83.00% | 0.00 hPa
  • 15-08-2018 06:00:00 | 19.30°C | Este |7.00 km/h | 83.00% | 0.00 hPa
  • 15-08-2018 05:00:00 | 19.20°C | Sudeste |6.00 km/h | 83.00% | 0.00 hPa
  • 15-08-2018 04:00:00 | 19.60°C | Este |8.00 km/h | 83.00% | 0.00 hPa
  • 15-08-2018 03:00:00 | 19.70°C | Nordeste |8.00 km/h | 80.00% | 0.00 hPa